Time;durP1;ratioP1;P1;durP2;ratioP2;P2;SDS_P1;SDS_P2;PMS_P1;PMS_P2;Temp;Humidity;BMP_temperature;BMP_pressure;BME280_temperature;BME280_humidity;BME280_pressure;Samples;Min_cycle;Max_cycle;Signal;HPM_P1;HPM_P2
2023/01/06 00:01:19;;;;;;;19.67;12.15;;;;;;;;;;4952688;28;20047;-67
2023/01/06 00:03:53;;;;;;;16.55;11.90;;;;;;;;;;4961067;28;20057;-69
2023/01/06 00:06:26;;;;;;;19.27;12.30;;;;;;;;;;4954486;28;20051;-71
2023/01/06 00:08:59;;;;;;;18.55;11.73;;;;;;;;;;4964834;28;20053;-76
2023/01/06 00:11:25;;;;;;;17.77;11.20;;;;;;;;;;4963438;28;20042;-69
2023/01/06 00:13:51;;;;;;;16.42;11.05;;;;;;;;;;4960706;28;20519;-76
2023/01/06 00:16:19;;;;;;;16.48;10.80;;;;;;;;;;4956193;28;20150;-70
2023/01/06 00:18:46;;;;;;;16.20;10.07;;;;;;;;;;4953715;28;20146;-72
2023/01/06 00:21:13;;;;;;;18.80;10.18;;;;;;;;;;4958944;28;20050;-71
2023/01/06 00:23:40;;;;;;;14.65;9.13;;;;;;;;;;4959502;28;20102;-69
2023/01/06 00:26:08;;;;;;;17.52;10.13;;;;;;;;;;4957186;28;20051;-70
2023/01/06 00:28:34;;;;;;;16.95;9.65;;;;;;;;;;4956391;28;20051;-71
2023/01/06 00:31:06;;;;;;;13.52;9.18;;;;;;;;;;4958229;28;20452;-69
2023/01/06 00:33:32;;;;;;;15.38;9.00;;;;;;;;;;4954765;28;20069;-73
2023/01/06 00:35:59;;;;;;;13.18;8.88;;;;;;;;;;4958004;28;20059;-67
2023/01/06 00:38:24;;;;;;;13.50;8.85;;;;;;;;;;4955107;28;20519;-69
2023/01/06 00:40:51;;;;;;;16.90;8.38;;;;;;;;;;4955663;28;20412;-69
2023/01/06 00:43:16;;;;;;;10.93;7.80;;;;;;;;;;4956534;28;20039;-67
2023/01/06 00:45:42;;;;;;;16.00;8.75;;;;;;;;;;4957610;28;20180;-69
2023/01/06 00:48:08;;;;;;;11.75;7.60;;;;;;;;;;4958115;28;20055;-67
2023/01/06 00:50:34;;;;;;;13.48;8.15;;;;;;;;;;4963424;28;20055;-68
2023/01/06 00:53:00;;;;;;;12.77;7.13;;;;;;;;;;4957550;28;20456;-71
2023/01/06 00:55:28;;;;;;;11.70;7.15;;;;;;;;;;4956126;28;20095;-66
2023/01/06 00:57:54;;;;;;;13.75;7.50;;;;;;;;;;4960355;28;20051;-68
2023/01/06 01:00:21;;;;;;;11.85;7.57;;;;;;;;;;4956422;28;20057;-67
2023/01/06 01:02:47;;;;;;;14.77;8.25;;;;;;;;;;4956958;28;20057;-74
2023/01/06 01:05:13;;;;;;;13.70;8.45;;;;;;;;;;4960824;28;20118;-70
2023/01/06 01:07:39;;;;;;;13.15;7.95;;;;;;;;;;4957436;28;20373;-67
2023/01/06 01:10:06;;;;;;;13.52;8.27;;;;;;;;;;4959323;28;20051;-65
2023/01/06 01:12:32;;;;;;;11.82;7.60;;;;;;;;;;4957017;28;20056;-77
2023/01/06 01:14:58;;;;;;;12.13;7.85;;;;;;;;;;4954317;28;20039;-74
2023/01/06 01:17:27;;;;;;;14.35;8.48;;;;;;;;;;4958230;28;20458;-74
2023/01/06 01:19:54;;;;;;;12.35;7.90;;;;;;;;;;4966537;28;20118;-73
2023/01/06 01:22:22;;;;;;;14.18;7.72;;;;;;;;;;4963344;28;20079;-80
2023/01/06 01:24:48;;;;;;;14.38;8.05;;;;;;;;;;4959615;28;20052;-68
2023/01/06 01:27:13;;;;;;;10.68;7.07;;;;;;;;;;4962074;28;20062;-65
2023/01/06 01:29:40;;;;;;;12.85;7.78;;;;;;;;;;4955889;28;20051;-73
2023/01/06 01:32:06;;;;;;;11.30;7.20;;;;;;;;;;4951731;28;20066;-70
2023/01/06 01:34:32;;;;;;;13.75;6.90;;;;;;;;;;4957466;28;20107;-73
2023/01/06 01:36:58;;;;;;;12.18;6.47;;;;;;;;;;4952683;28;20134;-66
2023/01/06 01:39:27;;;;;;;10.60;6.72;;;;;;;;;;4959164;28;20055;-73
2023/01/06 01:41:54;;;;;;;11.75;6.28;;;;;;;;;;4956158;28;20498;-73
2023/01/06 01:44:53;;;;;;;13.20;6.20;;;;;;;;;;4958331;28;20047;-76
2023/01/06 01:47:43;;;;;;;9.57;6.15;;;;;;;;;;4953993;28;20047;-69
2023/01/06 01:50:16;;;;;;;11.00;6.88;;;;;;;;;;4955481;28;20055;-70
2023/01/06 01:52:45;;;;;;;12.40;6.50;;;;;;;;;;4952642;28;20047;-72
2023/01/06 01:55:13;;;;;;;9.82;6.28;;;;;;;;;;4962466;28;20374;-64
2023/01/06 01:58:01;;;;;;;10.30;6.25;;;;;;;;;;4958197;28;20431;-67
2023/01/06 02:00:28;;;;;;;10.55;6.55;;;;;;;;;;4955742;28;20083;-74
2023/01/06 02:02:54;;;;;;;10.30;6.10;;;;;;;;;;4955507;28;20134;-68
2023/01/06 02:05:24;;;;;;;12.32;6.28;;;;;;;;;;4956853;28;20136;-69
2023/01/06 02:07:50;;;;;;;13.50;6.80;;;;;;;;;;4957972;28;20686;-65
2023/01/06 02:10:21;;;;;;;10.20;6.05;;;;;;;;;;4954616;28;20063;-70
2023/01/06 02:12:51;;;;;;;9.55;6.22;;;;;;;;;;4957665;28;20505;-65
2023/01/06 02:15:19;;;;;;;10.80;6.25;;;;;;;;;;4955497;28;20046;-69
2023/01/06 02:18:23;;;;;;;10.65;6.22;;;;;;;;;;4958535;28;20121;-68
2023/01/06 02:21:13;;;;;;;10.55;5.25;;;;;;;;;;4953224;28;20055;-71
2023/01/06 02:23:57;;;;;;;9.55;6.00;;;;;;;;;;4953026;28;20054;-73
2023/01/06 02:26:32;;;;;;;7.05;4.65;;;;;;;;;;4967086;28;20051;-75
2023/01/06 02:29:13;;;;;;;9.63;5.65;;;;;;;;;;4964224;28;20046;-69
2023/01/06 02:32:06;;;;;;;7.95;5.05;;;;;;;;;;4956029;28;20054;-75
2023/01/06 02:34:57;;;;;;;8.95;5.03;;;;;;;;;;4955995;28;20061;-69
2023/01/06 02:37:41;;;;;;;10.07;5.25;;;;;;;;;;4957416;28;20050;-69
2023/01/06 02:40:22;;;;;;;8.10;4.80;;;;;;;;;;4962095;28;20054;-67
2023/01/06 02:42:57;;;;;;;8.85;4.30;;;;;;;;;;4953941;28;20074;-73
2023/01/06 02:45:36;;;;;;;6.50;4.85;;;;;;;;;;4958404;28;20189;-70
2023/01/06 02:48:08;;;;;;;7.05;4.38;;;;;;;;;;4956244;28;20296;-67
2023/01/06 02:50:46;;;;;;;8.07;4.78;;;;;;;;;;4955667;28;20113;-76
2023/01/06 02:53:42;;;;;;;7.47;4.65;;;;;;;;;;4962354;28;20515;-71
2023/01/06 02:56:08;;;;;;;10.30;4.78;;;;;;;;;;4960477;28;20055;-72
2023/01/06 02:58:46;;;;;;;9.00;4.60;;;;;;;;;;4956109;28;20052;-68
2023/01/06 03:01:23;;;;;;;6.00;4.38;;;;;;;;;;4955231;28;20512;-67
2023/01/06 03:03:51;;;;;;;8.38;4.20;;;;;;;;;;4958179;28;20054;-66
2023/01/06 03:06:23;;;;;;;6.47;4.00;;;;;;;;;;4953010;28;20050;-74
2023/01/06 03:08:52;;;;;;;7.68;4.28;;;;;;;;;;4959545;28;20055;-73
2023/01/06 03:11:18;;;;;;;5.70;3.97;;;;;;;;;;4953478;28;20440;-66
2023/01/06 03:13:49;;;;;;;8.25;4.03;;;;;;;;;;4958866;28;20073;-66
2023/01/06 03:16:15;;;;;;;6.50;4.05;;;;;;;;;;4953545;28;20154;-65
2023/01/06 03:18:43;;;;;;;8.18;4.25;;;;;;;;;;4954046;28;20039;-71
2023/01/06 03:21:17;;;;;;;6.20;4.15;;;;;;;;;;4950300;28;20150;-71
2023/01/06 03:23:44;;;;;;;4.93;3.67;;;;;;;;;;4956310;28;20059;-68
2023/01/06 03:26:11;;;;;;;6.97;3.97;;;;;;;;;;4952452;28;20039;-76
2023/01/06 03:28:37;;;;;;;8.63;4.25;;;;;;;;;;4960859;28;20465;-69
2023/01/06 03:31:27;;;;;;;7.20;3.97;;;;;;;;;;4959333;28;20082;-66
2023/01/06 03:34:06;;;;;;;6.13;4.07;;;;;;;;;;4959905;28;20372;-70
2023/01/06 03:36:49;;;;;;;8.95;4.65;;;;;;;;;;4958272;28;20054;-66
2023/01/06 03:39:44;;;;;;;9.60;4.47;;;;;;;;;;4959642;28;20145;-70
2023/01/06 03:45:28;;;;;;;7.80;4.75;;;;;;;;;;4960037;28;20508;-67
2023/01/06 03:48:00;;;;;;;8.88;4.93;;;;;;;;;;4955928;28;20112;-69
2023/01/06 03:50:37;;;;;;;10.85;5.00;;;;;;;;;;4957571;28;20058;-70
2023/01/06 03:53:33;;;;;;;11.25;5.90;;;;;;;;;;4954022;28;20047;-69
2023/01/06 03:56:13;;;;;;;12.50;5.75;;;;;;;;;;4953730;28;20050;-70
2023/01/06 03:58:40;;;;;;;10.13;6.10;;;;;;;;;;4954980;28;20072;-71
2023/01/06 04:01:07;;;;;;;10.82;5.90;;;;;;;;;;4952655;28;20043;-67
2023/01/06 04:03:34;;;;;;;8.55;5.55;;;;;;;;;;4953632;28;20096;-67
2023/01/06 04:06:00;;;;;;;11.45;5.90;;;;;;;;;;4954831;28;20454;-74
2023/01/06 04:08:26;;;;;;;9.32;5.65;;;;;;;;;;4952918;28;20062;-73
2023/01/06 04:10:52;;;;;;;11.63;6.32;;;;;;;;;;4951230;28;20135;-69
2023/01/06 04:13:17;;;;;;;10.55;5.80;;;;;;;;;;4949406;28;20473;-67
2023/01/06 04:15:44;;;;;;;10.32;6.07;;;;;;;;;;4950227;28;20190;-67
2023/01/06 04:18:09;;;;;;;8.93;6.15;;;;;;;;;;4955165;28;20629;-72
2023/01/06 04:20:35;;;;;;;11.57;6.63;;;;;;;;;;4956232;28;20086;-69
2023/01/06 04:23:01;;;;;;;11.60;6.70;;;;;;;;;;4954953;28;20042;-69
2023/01/06 04:25:27;;;;;;;14.27;7.00;;;;;;;;;;4955638;28;20058;-67
2023/01/06 04:27:53;;;;;;;10.80;6.20;;;;;;;;;;4955406;28;20050;-73
2023/01/06 04:30:19;;;;;;;9.10;5.90;;;;;;;;;;4957460;28;20106;-67
2023/01/06 04:32:45;;;;;;;11.88;5.90;;;;;;;;;;4956681;28;20416;-68
2023/01/06 04:35:11;;;;;;;8.45;6.05;;;;;;;;;;4953886;28;20085;-70
2023/01/06 04:37:37;;;;;;;7.70;5.47;;;;;;;;;;4958370;28;20406;-67
2023/01/06 04:40:05;;;;;;;10.05;5.05;;;;;;;;;;4959961;28;20088;-67
2023/01/06 04:43:02;;;;;;;8.73;5.65;;;;;;;;;;4953580;28;20504;-66
2023/01/06 04:45:17;;;;;;;8.68;4.90;;;;;;;;;;4956134;28;20066;-69
2023/01/06 04:47:43;;;;;;;8.25;4.97;;;;;;;;;;4958815;28;20149;-67
2023/01/06 04:50:09;;;;;;;8.45;5.05;;;;;;;;;;4950442;28;20047;-67
2023/01/06 04:52:35;;;;;;;7.32;4.53;;;;;;;;;;4955526;28;20043;-68
2023/01/06 04:55:01;;;;;;;6.68;4.63;;;;;;;;;;4954334;28;20063;-67
2023/01/06 04:57:27;;;;;;;5.90;4.25;;;;;;;;;;4951573;28;20999;-68
2023/01/06 04:59:53;;;;;;;8.00;4.80;;;;;;;;;;4959106;28;20058;-70
2023/01/06 05:02:18;;;;;;;6.30;4.20;;;;;;;;;;4948139;28;20230;-68
2023/01/06 05:04:44;;;;;;;8.80;5.35;;;;;;;;;;4951531;28;20587;-71
2023/01/06 05:07:10;;;;;;;6.43;4.10;;;;;;;;;;4956257;28;20104;-66
2023/01/06 05:09:36;;;;;;;7.10;4.70;;;;;;;;;;4952965;28;20042;-72
2023/01/06 05:12:02;;;;;;;9.05;4.88;;;;;;;;;;4949361;28;20382;-68
2023/01/06 05:14:28;;;;;;;8.40;4.90;;;;;;;;;;4951246;28;20140;-74
2023/01/06 05:16:54;;;;;;;6.53;4.47;;;;;;;;;;4952151;28;20051;-66
2023/01/06 05:19:20;;;;;;;8.55;5.30;;;;;;;;;;4950296;28;20065;-68
2023/01/06 05:21:46;;;;;;;8.73;5.18;;;;;;;;;;4950104;28;20039;-65
2023/01/06 05:24:12;;;;;;;7.95;5.15;;;;;;;;;;4954589;28;20065;-67
2023/01/06 05:26:38;;;;;;;8.48;5.18;;;;;;;;;;4949031;28;20509;-78
2023/01/06 05:29:04;;;;;;;10.13;5.40;;;;;;;;;;4950050;28;20481;-67
2023/01/06 05:31:29;;;;;;;7.72;5.45;;;;;;;;;;4946160;28;20066;-72
2023/01/06 05:33:55;;;;;;;9.25;5.50;;;;;;;;;;4948687;28;20059;-72
2023/01/06 05:36:22;;;;;;;7.82;5.43;;;;;;;;;;4947906;28;20054;-71
2023/01/06 05:38:52;;;;;;;9.35;5.75;;;;;;;;;;4950169;28;20070;-68
2023/01/06 05:41:18;;;;;;;7.20;5.05;;;;;;;;;;4950808;28;20194;-68
2023/01/06 05:43:45;;;;;;;9.20;5.30;;;;;;;;;;4955099;28;20059;-66
2023/01/06 05:46:11;;;;;;;8.93;5.10;;;;;;;;;;4948790;28;20046;-68
2023/01/06 05:48:37;;;;;;;8.65;4.55;;;;;;;;;;4953781;28;20055;-72
2023/01/06 05:51:09;;;;;;;7.85;4.90;;;;;;;;;;4951834;28;20173;-74
2023/01/06 05:53:37;;;;;;;8.30;5.32;;;;;;;;;;4950046;28;20070;-71
2023/01/06 05:56:05;;;;;;;9.93;4.82;;;;;;;;;;4949354;28;20050;-71
2023/01/06 05:58:34;;;;;;;7.22;5.05;;;;;;;;;;4949227;28;20377;-69
2023/01/06 06:01:03;;;;;;;11.20;5.47;;;;;;;;;;4956401;28;20831;-65
2023/01/06 06:03:30;;;;;;;7.75;4.85;;;;;;;;;;4959245;28;20070;-72
2023/01/06 06:06:02;;;;;;;9.73;5.22;;;;;;;;;;4953508;28;20050;-69
2023/01/06 06:08:29;;;;;;;8.88;5.20;;;;;;;;;;4957672;28;20043;-74
2023/01/06 06:10:54;;;;;;;8.35;5.28;;;;;;;;;;4961857;28;20047;-66
2023/01/06 06:13:20;;;;;;;7.72;5.20;;;;;;;;;;4957357;28;20146;-65
2023/01/06 06:15:46;;;;;;;10.32;5.50;;;;;;;;;;4959135;28;20038;-66
2023/01/06 06:18:12;;;;;;;8.40;5.57;;;;;;;;;;4959332;28;20073;-72
2023/01/06 06:20:38;;;;;;;8.32;5.22;;;;;;;;;;4957289;28;20121;-75
2023/01/06 06:23:04;;;;;;;10.18;6.07;;;;;;;;;;4962378;28;20051;-67
2023/01/06 06:25:30;;;;;;;7.50;4.93;;;;;;;;;;4951808;28;20047;-75
2023/01/06 06:27:58;;;;;;;10.82;5.75;;;;;;;;;;4957988;28;20348;-70
2023/01/06 06:30:24;;;;;;;8.48;5.55;;;;;;;;;;4965378;28;20077;-67
2023/01/06 06:32:50;;;;;;;9.68;5.07;;;;;;;;;;4954502;28;20053;-69
2023/01/06 06:35:16;;;;;;;9.70;5.72;;;;;;;;;;4955572;28;20051;-68
2023/01/06 06:37:42;;;;;;;7.82;5.07;;;;;;;;;;4955880;28;20069;-68
2023/01/06 06:40:08;;;;;;;9.35;5.47;;;;;;;;;;4960916;28;20975;-64
2023/01/06 06:42:34;;;;;;;9.40;5.28;;;;;;;;;;4959528;28;20058;-68
2023/01/06 06:45:00;;;;;;;6.97;5.18;;;;;;;;;;4959173;28;20051;-74
2023/01/06 06:47:26;;;;;;;8.35;4.57;;;;;;;;;;4957120;28;20051;-74
2023/01/06 06:49:51;;;;;;;8.00;4.68;;;;;;;;;;4955925;28;20055;-69
2023/01/06 06:52:18;;;;;;;9.63;4.72;;;;;;;;;;4955415;28;20043;-69
2023/01/06 06:54:44;;;;;;;7.30;4.78;;;;;;;;;;4958666;28;20105;-66
2023/01/06 06:57:10;;;;;;;6.75;4.88;;;;;;;;;;4958946;28;20054;-69
2023/01/06 06:59:35;;;;;;;7.55;4.75;;;;;;;;;;4959016;28;20057;-66
2023/01/06 07:02:01;;;;;;;7.43;4.72;;;;;;;;;;4957908;28;20047;-71
2023/01/06 07:04:27;;;;;;;8.27;4.68;;;;;;;;;;4954640;28;20039;-71
2023/01/06 07:06:55;;;;;;;9.18;4.47;;;;;;;;;;4951154;28;20055;-72
2023/01/06 07:09:21;;;;;;;6.13;4.47;;;;;;;;;;4957052;28;20043;-68
2023/01/06 07:11:47;;;;;;;6.75;4.65;;;;;;;;;;4956117;28;20448;-73
2023/01/06 07:14:12;;;;;;;7.40;4.57;;;;;;;;;;4950533;28;20042;-76
2023/01/06 07:16:38;;;;;;;7.93;4.20;;;;;;;;;;4955954;28;20509;-67
2023/01/06 07:19:04;;;;;;;6.45;4.28;;;;;;;;;;4952631;28;20040;-72
2023/01/06 07:21:30;;;;;;;8.55;4.28;;;;;;;;;;4954311;28;20500;-74
2023/01/06 07:23:56;;;;;;;8.15;4.25;;;;;;;;;;4958036;28;20054;-75
2023/01/06 07:26:22;;;;;;;6.88;4.20;;;;;;;;;;4955312;28;20063;-75
2023/01/06 07:28:48;;;;;;;8.23;4.57;;;;;;;;;;4960646;28;20097;-67
2023/01/06 07:31:14;;;;;;;10.73;4.70;;;;;;;;;;4957968;28;20057;-68
2023/01/06 07:33:40;;;;;;;10.02;4.72;;;;;;;;;;4958514;28;20046;-73
2023/01/06 07:36:07;;;;;;;11.55;4.40;;;;;;;;;;4956737;28;20051;-69
2023/01/06 07:38:33;;;;;;;7.88;4.88;;;;;;;;;;4952664;28;20058;-69
2023/01/06 07:41:00;;;;;;;10.02;5.25;;;;;;;;;;4953947;28;20046;-73
2023/01/06 07:43:25;;;;;;;8.25;4.93;;;;;;;;;;4955205;28;20050;-77
2023/01/06 07:45:51;;;;;;;15.10;5.20;;;;;;;;;;4955603;28;20070;-70
2023/01/06 07:48:17;;;;;;;8.55;5.40;;;;;;;;;;4958086;28;20055;-72
2023/01/06 07:50:43;;;;;;;7.88;5.45;;;;;;;;;;4956265;28;20062;-72
2023/01/06 07:53:10;;;;;;;10.13;5.57;;;;;;;;;;4955657;28;20043;-66
2023/01/06 07:55:36;;;;;;;8.73;5.72;;;;;;;;;;4953393;28;20047;-68
2023/01/06 07:58:06;;;;;;;8.18;5.85;;;;;;;;;;4956012;28;20599;-72
2023/01/06 08:00:33;;;;;;;17.10;6.25;;;;;;;;;;4960959;28;20273;-69
2023/01/06 08:03:03;;;;;;;9.27;6.03;;;;;;;;;;4953096;28;20050;-74
2023/01/06 08:05:29;;;;;;;10.95;5.95;;;;;;;;;;4954302;28;20420;-70
2023/01/06 08:07:56;;;;;;;9.20;5.70;;;;;;;;;;4952929;28;20050;-69
2023/01/06 08:10:22;;;;;;;9.00;5.80;;;;;;;;;;4953162;28;20051;-73
2023/01/06 08:12:47;;;;;;;9.63;6.32;;;;;;;;;;4955083;28;20112;-69
2023/01/06 08:15:14;;;;;;;10.68;5.85;;;;;;;;;;4957603;28;20133;-66
2023/01/06 08:17:39;;;;;;;12.27;6.05;;;;;;;;;;4954926;28;20145;-75
2023/01/06 08:20:06;;;;;;;9.52;6.30;;;;;;;;;;4949870;28;20585;-71
2023/01/06 08:22:31;;;;;;;13.45;6.10;;;;;;;;;;4950188;28;20497;-77
2023/01/06 08:24:57;;;;;;;12.05;6.03;;;;;;;;;;4958404;28;20047;-68
2023/01/06 08:27:23;;;;;;;11.30;6.30;;;;;;;;;;4951341;28;20043;-68
2023/01/06 08:29:50;;;;;;;11.43;6.05;;;;;;;;;;4951993;28;20067;-69
2023/01/06 08:32:16;;;;;;;9.32;5.70;;;;;;;;;;4953650;28;20130;-71
2023/01/06 08:34:43;;;;;;;13.07;6.00;;;;;;;;;;4959846;28;20471;-71
2023/01/06 08:37:09;;;;;;;9.93;5.97;;;;;;;;;;4951789;28;20051;-69
2023/01/06 08:39:35;;;;;;;11.27;6.40;;;;;;;;;;4947276;28;20083;-73
2023/01/06 08:42:01;;;;;;;10.80;6.00;;;;;;;;;;4952463;28;20047;-64
2023/01/06 08:44:27;;;;;;;13.48;6.60;;;;;;;;;;4953291;28;20050;-67
2023/01/06 08:46:53;;;;;;;13.88;7.53;;;;;;;;;;4952069;28;20046;-68
2023/01/06 08:49:19;;;;;;;14.65;7.00;;;;;;;;;;4953778;28;20516;-76
2023/01/06 08:51:45;;;;;;;12.23;7.07;;;;;;;;;;4958971;28;20082;-69
2023/01/06 08:54:13;;;;;;;14.57;6.85;;;;;;;;;;4957568;28;20420;-72
2023/01/06 08:56:42;;;;;;;10.68;6.75;;;;;;;;;;4957437;28;20046;-69
2023/01/06 08:59:13;;;;;;;12.18;7.97;;;;;;;;;;4958315;28;20051;-66
2023/01/06 09:01:38;;;;;;;9.38;5.90;;;;;;;;;;4960462;28;20046;-68
2023/01/06 09:04:06;;;;;;;10.90;5.90;;;;;;;;;;4951616;28;20047;-69
2023/01/06 09:06:33;;;;;;;8.52;5.90;;;;;;;;;;4959075;28;20066;-67
2023/01/06 09:08:59;;;;;;;11.63;6.10;;;;;;;;;;4958671;28;20051;-72
2023/01/06 09:11:25;;;;;;;10.73;6.20;;;;;;;;;;4960508;28;20042;-73
2023/01/06 09:13:52;;;;;;;12.15;5.68;;;;;;;;;;4955610;28;20038;-71
2023/01/06 09:16:19;;;;;;;9.23;4.97;;;;;;;;;;4956595;28;20189;-67
2023/01/06 09:18:48;;;;;;;10.90;5.80;;;;;;;;;;4957264;28;20047;-70
2023/01/06 09:21:16;;;;;;;8.90;5.35;;;;;;;;;;4956084;28;20138;-67
2023/01/06 09:23:42;;;;;;;7.97;5.07;;;;;;;;;;4958863;28;20046;-69
2023/01/06 09:26:08;;;;;;;12.35;5.82;;;;;;;;;;4956630;28;20113;-76
2023/01/06 09:28:34;;;;;;;8.43;5.05;;;;;;;;;;4956058;28;20042;-69
2023/01/06 09:31:00;;;;;;;10.05;4.85;;;;;;;;;;4962435;28;20580;-68
2023/01/06 09:33:26;;;;;;;9.80;4.85;;;;;;;;;;4948746;28;20051;-70
2023/01/06 09:35:52;;;;;;;9.88;4.90;;;;;;;;;;4964973;28;20145;-71
2023/01/06 09:38:19;;;;;;;9.05;5.05;;;;;;;;;;4967484;28;20174;-73
2023/01/06 09:41:17;;;;;;;8.95;4.70;;;;;;;;;;4958037;28;20046;-77
2023/01/06 09:43:50;;;;;;;12.93;4.95;;;;;;;;;;4961451;28;20055;-71
2023/01/06 09:46:20;;;;;;;8.48;4.40;;;;;;;;;;4963495;28;20043;-74
2023/01/06 09:48:55;;;;;;;8.20;4.80;;;;;;;;;;4960055;28;20050;-73
2023/01/06 09:51:25;;;;;;;7.28;4.93;;;;;;;;;;4963426;28;20053;-71
2023/01/06 09:54:22;;;;;;;5.35;3.88;;;;;;;;;;4954986;28;20054;-71
2023/01/06 09:56:53;;;;;;;11.60;4.93;;;;;;;;;;4954745;28;20154;-67
2023/01/06 09:59:43;;;;;;;9.60;4.95;;;;;;;;;;4970407;28;20042;-72
2023/01/06 10:02:25;;;;;;;8.25;4.13;;;;;;;;;;4958847;28;20145;-69
2023/01/06 10:04:52;;;;;;;8.50;4.10;;;;;;;;;;4964843;28;20571;-72
2023/01/06 10:07:22;;;;;;;6.95;4.55;;;;;;;;;;4959958;28;20090;-70
2023/01/06 10:09:57;;;;;;;6.18;3.88;;;;;;;;;;4966453;28;20488;-67
2023/01/06 10:12:28;;;;;;;5.53;3.70;;;;;;;;;;4957247;28;20051;-69
2023/01/06 10:15:25;;;;;;;5.65;3.08;;;;;;;;;;4963263;28;20235;-72
2023/01/06 10:18:08;;;;;;;8.05;3.70;;;;;;;;;;4955778;28;20065;-68
2023/01/06 10:20:52;;;;;;;8.10;3.92;;;;;;;;;;4959948;28;20042;-68
2023/01/06 10:23:21;;;;;;;8.75;3.90;;;;;;;;;;4960884;28;20353;-69
2023/01/06 10:25:52;;;;;;;8.05;3.65;;;;;;;;;;4950128;28;20099;-75
2023/01/06 10:28:29;;;;;;;6.07;3.40;;;;;;;;;;4956377;28;20035;-71
2023/01/06 10:31:02;;;;;;;7.15;4.07;;;;;;;;;;4959234;28;20077;-74
2023/01/06 10:33:32;;;;;;;5.67;3.80;;;;;;;;;;4960645;28;20130;-70
2023/01/06 10:35:59;;;;;;;5.35;3.42;;;;;;;;;;4958044;28;20051;-70
2023/01/06 10:38:33;;;;;;;7.60;3.78;;;;;;;;;;4959041;28;20101;-72
2023/01/06 10:41:14;;;;;;;6.43;4.18;;;;;;;;;;4961973;28;20615;-69
2023/01/06 10:43:40;;;;;;;5.43;3.67;;;;;;;;;;4961175;28;20156;-72
2023/01/06 10:46:06;;;;;;;8.27;4.28;;;;;;;;;;4967428;28;20054;-71
2023/01/06 10:48:34;;;;;;;6.15;3.67;;;;;;;;;;4960517;28;20042;-72
2023/01/06 10:51:27;;;;;;;9.88;4.10;;;;;;;;;;4960429;28;20413;-69
2023/01/06 10:53:56;;;;;;;7.20;4.05;;;;;;;;;;4952563;28;20055;-78
2023/01/06 10:56:23;;;;;;;5.40;3.67;;;;;;;;;;4960113;28;20061;-73
2023/01/06 10:58:56;;;;;;;7.30;4.00;;;;;;;;;;4966352;28;20086;-70
2023/01/06 11:01:26;;;;;;;7.93;4.60;;;;;;;;;;4955791;28;20404;-71
2023/01/06 11:04:12;;;;;;;6.75;4.03;;;;;;;;;;4961388;28;20161;-67
2023/01/06 11:06:43;;;;;;;5.43;3.78;;;;;;;;;;4959249;28;20058;-71
2023/01/06 11:09:41;;;;;;;13.90;4.10;;;;;;;;;;4960005;28;20828;-72
2023/01/06 11:12:17;;;;;;;12.73;3.88;;;;;;;;;;4960727;28;20054;-69
2023/01/06 11:14:51;;;;;;;5.22;3.85;;;;;;;;;;4961667;28;20063;-69
2023/01/06 11:17:20;;;;;;;5.22;3.22;;;;;;;;;;4953351;28;20055;-72
2023/01/06 11:20:06;;;;;;;5.00;3.08;;;;;;;;;;4963475;28;20125;-72
2023/01/06 11:22:34;;;;;;;7.47;3.75;;;;;;;;;;4958447;28;20492;-69
2023/01/06 11:25:00;;;;;;;11.20;3.42;;;;;;;;;;4960193;28;20130;-68
2023/01/06 11:27:26;;;;;;;5.28;3.20;;;;;;;;;;4960859;28;20058;-68
2023/01/06 11:29:53;;;;;;;7.18;3.30;;;;;;;;;;4953291;28;20051;-70
2023/01/06 11:32:23;;;;;;;4.68;2.95;;;;;;;;;;4956165;28;20058;-69
2023/01/06 11:34:51;;;;;;;5.72;2.88;;;;;;;;;;4957564;28;20065;-71
2023/01/06 11:37:30;;;;;;;6.03;3.70;;;;;;;;;;4957648;28;20217;-69
2023/01/06 11:39:56;;;;;;;6.15;3.70;;;;;;;;;;4964389;28;20129;-71
2023/01/06 11:42:23;;;;;;;14.05;3.95;;;;;;;;;;4955282;28;20134;-69
2023/01/06 11:44:49;;;;;;;5.40;3.65;;;;;;;;;;4958490;28;20059;-74
2023/01/06 11:47:23;;;;;;;8.23;4.32;;;;;;;;;;4962483;28;20055;-72
2023/01/06 11:49:59;;;;;;;6.93;4.30;;;;;;;;;;4962095;28;20493;-74
2023/01/06 11:52:30;;;;;;;8.45;4.47;;;;;;;;;;4962907;28;20843;-76
2023/01/06 11:55:08;;;;;;;6.20;4.35;;;;;;;;;;4961813;28;20077;-72
2023/01/06 11:58:00;;;;;;;5.85;3.50;;;;;;;;;;4959776;28;20109;-66
2023/01/06 12:00:38;;;;;;;7.93;5.00;;;;;;;;;;4956828;28;20523;-69
2023/01/06 12:03:10;;;;;;;8.63;3.95;;;;;;;;;;4950449;28;20042;-69
2023/01/06 12:05:56;;;;;;;6.18;3.60;;;;;;;;;;4965179;28;20050;-67
2023/01/06 12:08:30;;;;;;;5.82;3.80;;;;;;;;;;4957068;28;20077;-70
2023/01/06 12:11:02;;;;;;;8.02;3.95;;;;;;;;;;4962285;28;20109;-72
2023/01/06 12:13:28;;;;;;;7.95;4.10;;;;;;;;;;4959000;28;20469;-69
2023/01/06 12:16:01;;;;;;;6.63;3.67;;;;;;;;;;4953447;28;20053;-75
2023/01/06 12:18:31;;;;;;;6.68;3.78;;;;;;;;;;4952370;28;20118;-68
2023/01/06 12:20:59;;;;;;;6.80;3.30;;;;;;;;;;4953297;28;20054;-70
2023/01/06 12:23:31;;;;;;;5.28;3.05;;;;;;;;;;4959541;28;20050;-73
2023/01/06 12:26:00;;;;;;;6.72;3.60;;;;;;;;;;4965730;28;20086;-75
2023/01/06 12:28:36;;;;;;;6.50;3.20;;;;;;;;;;4962749;28;20046;-73
2023/01/06 12:31:15;;;;;;;4.95;3.03;;;;;;;;;;4954107;28;20042;-72
2023/01/06 12:34:02;;;;;;;4.45;3.10;;;;;;;;;;4957633;28;20142;-69
2023/01/06 12:36:40;;;;;;;5.45;3.55;;;;;;;;;;4950045;28;20075;-68
2023/01/06 12:39:23;;;;;;;6.20;3.50;;;;;;;;;;4958398;28;20393;-69
2023/01/06 12:42:01;;;;;;;5.28;3.42;;;;;;;;;;4952906;28;20081;-74
2023/01/06 12:44:56;;;;;;;5.05;3.65;;;;;;;;;;4957502;28;20057;-73
2023/01/06 12:47:27;;;;;;;5.63;3.73;;;;;;;;;;4953103;28;20141;-72
2023/01/06 12:49:55;;;;;;;4.63;3.25;;;;;;;;;;4952600;28;20315;-68
2023/01/06 12:52:31;;;;;;;5.45;3.70;;;;;;;;;;4953889;28;20667;-72
2023/01/06 12:54:58;;;;;;;6.80;4.05;;;;;;;;;;4951968;28;20589;-76
2023/01/06 12:57:51;;;;;;;7.07;4.45;;;;;;;;;;4946712;28;20047;-69
2023/01/06 13:00:36;;;;;;;8.23;4.07;;;;;;;;;;4951983;28;20690;-71
2023/01/06 13:03:24;;;;;;;9.07;4.10;;;;;;;;;;4949827;28;20464;-69
2023/01/06 13:06:11;;;;;;;7.90;4.10;;;;;;;;;;4953259;28;20183;-73
2023/01/06 13:09:02;;;;;;;8.07;3.83;;;;;;;;;;4959264;28;20508;-65
2023/01/06 13:11:42;;;;;;;7.90;4.07;;;;;;;;;;4957032;28;20046;-72
2023/01/06 13:14:53;;;;;;;7.70;3.58;;;;;;;;;;4958069;28;20058;-69
2023/01/06 13:17:35;;;;;;;8.77;5.10;;;;;;;;;;4949532;28;20517;-73
2023/01/06 13:20:04;;;;;;;9.23;4.60;;;;;;;;;;4960622;28;20038;-71
2023/01/06 13:22:39;;;;;;;9.55;4.00;;;;;;;;;;4950570;28;20539;-68
2023/01/06 13:25:36;;;;;;;8.45;4.32;;;;;;;;;;4957713;28;20054;-72
2023/01/06 13:28:11;;;;;;;49.30;12.75;;;;;;;;;;4953759;28;20051;-70
2023/01/06 13:30:56;;;;;;;6.85;3.10;;;;;;;;;;4952976;28;20488;-74
2023/01/06 13:33:28;;;;;;;13.77;4.65;;;;;;;;;;4958935;28;20062;-76
2023/01/06 13:36:09;;;;;;;73.15;15.60;;;;;;;;;;4952458;28;20065;-68
2023/01/06 13:38:54;;;;;;;13.68;4.55;;;;;;;;;;4962749;28;20054;-74
2023/01/06 13:41:25;;;;;;;6.03;3.03;;;;;;;;;;4958722;28;20552;-76
2023/01/06 13:43:53;;;;;;;3.58;2.22;;;;;;;;;;4956820;28;20110;-72
2023/01/06 13:46:20;;;;;;;34.88;10.68;;;;;;;;;;4954812;28;20138;-76
2023/01/06 13:48:53;;;;;;;26.25;7.70;;;;;;;;;;4951019;28;20083;-70
2023/01/06 13:51:22;;;;;;;10.65;4.25;;;;;;;;;;4951663;28;20050;-69
2023/01/06 13:53:49;;;;;;;14.75;5.25;;;;;;;;;;4955723;28;20058;-69
2023/01/06 13:56:15;;;;;;;15.20;4.75;;;;;;;;;;4958395;28;20051;-71
2023/01/06 13:58:45;;;;;;;16.85;4.97;;;;;;;;;;4954463;28;20047;-67
2023/01/06 14:01:17;;;;;;;8.35;3.42;;;;;;;;;;4946373;28;20070;-72
2023/01/06 14:03:44;;;;;;;7.53;3.25;;;;;;;;;;4951477;28;20051;-71
2023/01/06 14:06:36;;;;;;;17.83;7.03;;;;;;;;;;4955259;28;20237;-71
2023/01/06 14:09:02;;;;;;;16.52;5.90;;;;;;;;;;4949166;28;20063;-73
2023/01/06 14:11:37;;;;;;;8.57;4.28;;;;;;;;;;4945186;28;20054;-73
2023/01/06 14:14:28;;;;;;;9.30;4.90;;;;;;;;;;4947583;28;20552;-76
2023/01/06 14:16:55;;;;;;;6.72;4.38;;;;;;;;;;4954899;28;20046;-73
2023/01/06 14:19:28;;;;;;;7.50;3.70;;;;;;;;;;4955059;28;20427;-72
2023/01/06 14:22:16;;;;;;;12.18;4.72;;;;;;;;;;4960627;28;20043;-74
2023/01/06 14:24:52;;;;;;;11.23;5.03;;;;;;;;;;4955239;28;20050;-73
2023/01/06 14:27:46;;;;;;;10.35;5.18;;;;;;;;;;4954940;28;20081;-74
2023/01/06 14:30:21;;;;;;;9.80;4.88;;;;;;;;;;4955655;28;20058;-73
2023/01/06 14:32:47;;;;;;;6.97;4.32;;;;;;;;;;4966321;28;20121;-70
2023/01/06 14:35:18;;;;;;;13.15;4.90;;;;;;;;;;4958255;28;20436;-72
2023/01/06 14:37:58;;;;;;;5.90;3.97;;;;;;;;;;4947997;28;20062;-73
2023/01/06 14:40:27;;;;;;;11.98;5.78;;;;;;;;;;4957597;28;20105;-69
2023/01/06 14:42:57;;;;;;;6.57;4.07;;;;;;;;;;4952519;28;20050;-73
2023/01/06 14:45:26;;;;;;;5.63;3.90;;;;;;;;;;4958238;28;20051;-69
2023/01/06 14:47:58;;;;;;;6.38;4.30;;;;;;;;;;4950219;28;20059;-71
2023/01/06 14:50:27;;;;;;;7.25;4.15;;;;;;;;;;4962226;28;20077;-68
2023/01/06 14:52:59;;;;;;;9.55;5.50;;;;;;;;;;4957952;28;20047;-66
2023/01/06 14:55:28;;;;;;;10.38;4.40;;;;;;;;;;4955261;28;20047;-69
2023/01/06 14:57:55;;;;;;;6.57;4.25;;;;;;;;;;4953746;28;20066;-79
2023/01/06 15:00:23;;;;;;;8.65;4.90;;;;;;;;;;4951467;28;20069;-67
2023/01/06 15:02:51;;;;;;;8.55;4.30;;;;;;;;;;4939965;28;20061;-70
2023/01/06 15:05:31;;;;;;;6.57;4.53;;;;;;;;;;4952199;28;20088;-75